Terminal Aerodrome Forecast
Issued by NWS

Home | Current Version | Previous Version | Text Only | Print | Product List | Glossary On
Versions: 1 2 3 4 5 6 7 8 9 10 11 12 13 14 15 16 17 18 19 20 21
000
FTUS46 KEKA 190520
TAFCEC
TAF
KCEC 190520Z 1906/2006 VRB05KT 3SM BR BKN120
      TEMPO 1906/1910 1SM BR SKC
     FM191000 00000KT 1SM BR SKC
      TEMPO 1911/1915 1/2SM FG
     FM191600 34005KT 6SM BR SKC
     FM192000 32013KT P6SM SKC=

USA.gov is the U.S. government's official web portal to all federal, state and local government web resources and services.